Time,TemperatureF,DewpointF,PressureIn,WindDirection,WindDirectionDegrees,WindSpeedMPH,WindSpeedGustMPH,Humidity,HourlyPrecipIn,Conditions,Clouds,dailyrainin,SolarRadiationWatts/m^2,SoftwareType,DateUTC
2013-02-17 00:01:00,27.0,17.1,29.97,ENE,68,2.4,3.5,66,0.00,RA,SCT,0.00,0.0,WeatherDisplay:10.37,2013-02-17 06:01:00,
2013-02-17 00:06:00,27.0,17.1,29.97,ESE,112,2.0,2.3,66,0.00,RA,SCT,0.00,0.0,WeatherDisplay:10.37,2013-02-17 06:06:00,
2013-02-17 00:11:00,27.0,17.5,29.97,ENE,68,1.6,4.6,67,0.00,CLR,SCT,0.00,0.0,WeatherDisplay:10.37,2013-02-17 06:11:00,
2013-02-17 00:16:00,26.8,17.3,29.97,ESE,112,2.2,4.6,67,0.00,CLR,SCT,0.00,0.0,WeatherDisplay:10.37,2013-02-17 06:16:00,
2013-02-17 00:22:00,26.8,17.3,29.97,ESE,112,2.4,3.5,67,0.00,CLR,SCT,0.00,0.0,WeatherDisplay:10.37,2013-02-17 06:22:00,
2013-02-17 00:27:00,26.6,17.1,29.97,ESE,112,2.6,4.6,67,0.00,CLR,SCT,0.00,0.0,WeatherDisplay:10.37,2013-02-17 06:27:00,
2013-02-17 00:32:00,26.4,16.9,29.97,ESE,112,2.2,3.5,67,0.00,CLR,SCT,0.00,0.0,WeatherDisplay:10.37,2013-02-17 06:32:00,
2013-02-17 00:37:00,26.4,16.9,29.97,East,90,2.2,3.5,67,0.00,CLR,SCT,0.00,0.0,WeatherDisplay:10.37,2013-02-17 06:37:00,
2013-02-17 00:42:00,26.2,16.8,29.97,ENE,68,2.0,3.5,67,0.00,CLR,SCT,0.00,0.0,WeatherDisplay:10.37,2013-02-17 06:42:00,
2013-02-17 00:47:00,26.1,16.9,29.97,ESE,112,2.6,3.5,68,0.00,CLR,SCT,0.00,0.0,WeatherDisplay:10.37,2013-02-17 06:47:00,
2013-02-17 00:52:00,26.1,16.9,29.97,East,90,2.6,2.6,68,0.00,CLR,SCT,0.00,0.0,WeatherDisplay:10.37,2013-02-17 06:52:00,
2013-02-17 00:58:00,26.1,16.9,29.97,ESE,112,2.9,3.5,68,0.00,CLR,SCT,0.00,0.0,WeatherDisplay:10.37,2013-02-17 06:58:00,
2013-02-17 01:03:00,25.9,16.8,29.97,ESE,112,2.0,3.5,68,0.00,CLR,SCT,0.00,0.0,WeatherDisplay:10.37,2013-02-17 07:03:00,
2013-02-17 01:08:00,25.9,16.8,29.97,East,90,2.4,4.6,68,0.00,CLR,SCT,0.00,0.0,WeatherDisplay:10.37,2013-02-17 07:08:00,
2013-02-17 01:13:00,25.7,16.6,29.97,East,90,2.0,2.3,68,0.00,CLR,SCT,0.00,0.0,WeatherDisplay:10.37,2013-02-17 07:13:00,
2013-02-17 01:18:00,25.7,16.6,29.97,ESE,112,2.4,3.8,68,0.00,CLR,SCT,0.00,0.0,WeatherDisplay:10.37,2013-02-17 07:18:00,
2013-02-17 01:23:00,25.5,16.4,29.97,ESE,112,2.0,3.5,68,0.00,CLR,SCT,0.00,0.0,WeatherDisplay:10.37,2013-02-17 07:23:00,
2013-02-17 01:28:00,25.5,16.8,29.97,ESE,112,2.2,3.1,69,0.00,CLR,SCT,0.00,0.0,WeatherDisplay:10.37,2013-02-17 07:28:00,
2013-02-17 01:33:00,25.3,16.6,30.00,ESE,112,2.0,2.6,69,0.00,CLR,SCT,0.00,0.0,WeatherDisplay:10.37,2013-02-17 07:33:00,
2013-02-17 01:38:00,25.3,16.6,30.00,ESE,112,1.4,2.4,69,0.00,CLR,SCT,0.00,0.0,WeatherDisplay:10.37,2013-02-17 07:38:00,
2013-02-17 01:43:00,25.3,16.6,30.00,ESE,112,1.4,2.3,69,0.00,CLR,SCT,0.00,0.0,WeatherDisplay:10.37,2013-02-17 07:43:00,
2013-02-17 01:49:00,25.2,16.1,30.00,ESE,112,2.4,2.4,68,0.00,CLR,SCT,0.00,0.0,WeatherDisplay:10.37,2013-02-17 07:49:00,
2013-02-17 01:54:00,25.0,15.9,30.00,East,90,1.4,2.3,68,0.00,CLR,SCT,0.00,0.0,WeatherDisplay:10.37,2013-02-17 07:54:00,
2013-02-17 01:59:00,25.0,15.9,30.00,ESE,112,1.4,2.3,68,0.00,CLR,SCT,0.00,0.0,WeatherDisplay:10.37,2013-02-17 07:59:00,
2013-02-17 02:04:00,24.8,16.1,30.00,East,90,2.0,2.4,69,0.00,CLR,SCT,0.00,0.0,WeatherDisplay:10.37,2013-02-17 08:04:00,
2013-02-17 02:09:00,24.8,16.1,30.00,East,90,2.0,3.5,69,0.00,CLR,SCT,0.00,0.0,WeatherDisplay:10.37,2013-02-17 08:09:00,
2013-02-17 02:14:00,24.8,16.4,30.00,ESE,112,2.0,2.9,70,0.00,CLR,SCT,0.00,0.0,WeatherDisplay:10.37,2013-02-17 08:14:00,
2013-02-17 02:19:00,24.6,16.2,30.00,ESE,112,2.0,2.4,70,0.00,CLR,SCT,0.00,0.0,WeatherDisplay:10.37,2013-02-17 08:19:00,
2013-02-17 02:24:00,24.6,16.2,30.00,SE,135,2.0,2.6,70,0.00,CLR,SCT,0.00,0.0,WeatherDisplay:10.37,2013-02-17 08:24:00,
2013-02-17 02:29:00,24.6,16.2,30.00,East,90,3.1,4.6,70,0.00,CLR,SCT,0.00,0.0,WeatherDisplay:10.37,2013-02-17 08:29:00,
2013-02-17 02:34:00,24.6,16.6,30.00,ENE,68,2.9,3.5,71,0.00,CLR,SCT,0.00,0.0,WeatherDisplay:10.37,2013-02-17 08:34:00,
2013-02-17 02:39:00,24.6,16.6,30.00,ESE,112,2.9,4.6,71,0.00,CLR,SCT,0.00,0.0,WeatherDisplay:10.37,2013-02-17 08:39:00,
2013-02-17 02:44:00,24.4,16.4,30.00,ESE,112,2.4,4.6,71,0.00,CLR,SCT,0.00,0.0,WeatherDisplay:10.37,2013-02-17 08:44:00,
2013-02-17 02:49:00,24.4,16.7,29.97,ENE,68,2.2,2.3,72,0.00,CLR,SCT,0.00,0.0,WeatherDisplay:10.37,2013-02-17 08:49:00,
2013-02-17 02:54:00,24.4,16.7,29.97,ESE,112,2.2,3.1,72,0.00,CLR,SCT,0.00,0.0,WeatherDisplay:10.37,2013-02-17 08:54:00,
2013-02-17 03:00:00,24.4,17.0,29.97,East,90,2.9,4.6,73,0.00,CLR,SCT,0.00,0.0,WeatherDisplay:10.37,2013-02-17 09:00:00,
2013-02-17 03:05:00,24.4,17.0,29.97,East,90,3.1,4.3,73,0.00,CLR,SCT,0.00,0.0,WeatherDisplay:10.37,2013-02-17 09:05:00,
2013-02-17 03:10:00,24.4,17.0,29.97,ESE,112,2.4,3.5,73,0.00,CLR,SCT,0.00,0.0,WeatherDisplay:10.37,2013-02-17 09:10:00,
2013-02-17 03:15:00,24.4,17.0,29.97,East,90,2.6,2.9,73,0.00,CLR,SCT,0.00,0.0,WeatherDisplay:10.37,2013-02-17 09:15:00,
2013-02-17 03:20:00,24.4,17.0,29.97,ESE,112,2.6,3.5,73,0.00,CLR,SCT,0.00,0.0,WeatherDisplay:10.37,2013-02-17 09:20:00,
2013-02-17 03:25:00,24.4,17.0,29.97,East,90,2.4,3.5,73,0.00,CLR,SCT,0.00,0.0,WeatherDisplay:10.37,2013-02-17 09:25:00,
2013-02-17 03:30:00,24.4,17.0,29.97,East,90,2.9,3.5,73,0.00,CLR,SCT,0.00,0.0,WeatherDisplay:10.37,2013-02-17 09:30:00,
2013-02-17 03:35:00,24.4,17.0,29.97,ESE,112,2.4,3.5,73,0.00,CLR,SCT,0.00,0.0,WeatherDisplay:10.37,2013-02-17 09:35:00,
2013-02-17 06:16:00,24.4,17.0,29.97,North,0,0.0,3.5,73,0.00,CLR,SCT,0.00,0.0,WeatherDisplay:10.37,2013-02-17 12:16:00,
2013-02-17 06:21:00,23.0,16.3,29.91,SSE,158,3.1,3.8,75,0.00,CLR,SCT,0.00,0.0,WeatherDisplay:10.37,2013-02-17 12:21:00,
2013-02-17 06:26:00,23.0,16.3,29.91,SSE,158,3.1,3.8,75,0.00,CLR,SCT,0.00,0.0,WeatherDisplay:10.37,2013-02-17 12:26:00,
2013-02-17 06:31:00,23.0,16.3,29.91,SSE,158,3.1,3.8,75,0.00,CLR,SCT,0.00,0.0,WeatherDisplay:10.37,2013-02-17 12:31:00,
2013-02-17 06:36:00,23.0,16.3,29.91,SSE,158,3.1,3.8,75,0.00,CLR,SCT,0.00,0.0,WeatherDisplay:10.37,2013-02-17 12:36:00,
2013-02-17 06:42:00,23.0,16.3,29.91,SSE,158,3.1,3.8,75,0.00,CLR,SCT,0.00,0.0,WeatherDisplay:10.37,2013-02-17 12:42:00,
2013-02-17 06:47:00,23.0,16.3,29.91,SSE,158,3.1,3.8,75,0.00,CLR,SCT,0.00,0.0,WeatherDisplay:10.37,2013-02-17 12:47:00,
2013-02-17 06:52:00,23.0,16.3,29.91,SSE,158,3.1,3.8,75,0.00,CLR,SCT,0.00,0.0,WeatherDisplay:10.37,2013-02-17 12:52:00,
2013-02-17 06:57:00,23.0,16.3,29.91,SSE,158,3.1,3.8,75,0.00,CLR,SCT,0.00,0.0,WeatherDisplay:10.37,2013-02-17 12:57:00,
2013-02-17 07:02:00,23.0,16.3,29.91,SSE,158,3.1,3.8,75,0.00,OVC,SCT,0.00,0.0,WeatherDisplay:10.37,2013-02-17 13:02:00,
2013-02-17 07:07:00,23.0,16.3,29.91,SSE,158,3.1,3.8,75,0.00,OVC,SCT,0.00,0.0,WeatherDisplay:10.37,2013-02-17 13:07:00,
2013-02-17 07:12:00,23.0,16.3,29.91,SSE,158,3.1,3.8,75,0.00,OVC,SCT,0.00,0.0,WeatherDisplay:10.37,2013-02-17 13:12:00,
2013-02-17 07:17:00,23.0,16.3,29.91,SSE,158,3.1,3.8,75,0.00,OVC,SCT,0.00,0.0,WeatherDisplay:10.37,2013-02-17 13:17:00,
2013-02-17 07:22:00,23.0,16.3,29.91,SSE,158,3.1,3.8,75,0.00,OVC,SCT,0.00,0.0,WeatherDisplay:10.37,2013-02-17 13:22:00,
2013-02-17 07:27:00,23.0,16.3,29.91,SSE,158,3.1,3.8,75,0.00,OVC,SCT,0.00,0.0,WeatherDisplay:10.37,2013-02-17 13:27:00,
2013-02-17 07:32:00,23.0,16.3,29.91,SSE,158,3.1,3.8,75,0.00,OVC,SCT,0.00,0.0,WeatherDisplay:10.37,2013-02-17 13:32:00,
2013-02-17 07:37:00,23.0,16.3,29.91,SSE,158,3.1,3.8,75,0.00,OVC,SCT,0.00,0.0,WeatherDisplay:10.37,2013-02-17 13:37:00,
2013-02-17 07:42:00,23.0,16.3,29.91,SSE,158,3.1,3.8,75,0.00,OVC,SCT,0.00,0.0,WeatherDisplay:10.37,2013-02-17 13:42:00,
2013-02-17 07:47:00,23.0,16.3,29.91,SSE,158,3.1,3.8,75,0.00,OVC,SCT,0.00,0.0,WeatherDisplay:10.37,2013-02-17 13:47:00,
2013-02-17 07:53:00,23.0,16.3,29.91,SSE,158,3.1,3.8,75,0.00,OVC,SCT,0.00,0.0,WeatherDisplay:10.37,2013-02-17 13:53:00,
2013-02-17 07:58:00,23.0,16.3,29.91,SSE,158,3.1,3.8,75,0.00,OVC,SCT,0.00,0.0,WeatherDisplay:10.37,2013-02-17 13:58:00,
2013-02-17 08:03:00,23.0,16.3,29.91,SSE,158,3.1,3.8,75,0.00,OVC,SCT,0.00,0.0,WeatherDisplay:10.37,2013-02-17 14:03:00,
2013-02-17 08:08:00,23.0,16.3,29.91,SSE,158,3.1,3.8,75,0.00,OVC,SCT,0.00,0.0,WeatherDisplay:10.37,2013-02-17 14:08:00,
2013-02-17 08:13:00,23.0,16.3,29.91,SSE,158,3.1,3.8,75,0.00,OVC,SCT,0.00,0.0,WeatherDisplay:10.37,2013-02-17 14:13:00,
2013-02-17 08:18:00,23.0,16.3,29.91,SSE,158,3.1,3.8,75,0.00,OVC,SCT,0.00,0.0,WeatherDisplay:10.37,2013-02-17 14:18:00,
2013-02-17 08:23:00,23.0,16.3,29.91,SSE,158,3.1,3.8,75,0.00,OVC,SCT,0.00,0.0,WeatherDisplay:10.37,2013-02-17 14:23:00,
2013-02-17 08:28:00,23.0,16.3,29.91,SSE,158,3.1,3.8,75,0.00,OVC,SCT,0.00,0.0,WeatherDisplay:10.37,2013-02-17 14:28:00,
2013-02-17 08:33:00,23.0,16.3,29.91,SSE,158,3.1,3.8,75,0.00,OVC,SCT,0.00,0.0,WeatherDisplay:10.37,2013-02-17 14:33:00,
2013-02-17 08:38:00,23.0,16.3,29.91,SSE,158,3.1,3.8,75,0.00,OVC,SCT,0.00,0.0,WeatherDisplay:10.37,2013-02-17 14:38:00,
2013-02-17 08:43:00,23.0,16.3,29.91,SSE,158,3.1,3.8,75,0.00,OVC,SCT,0.00,0.0,WeatherDisplay:10.37,2013-02-17 14:43:00,
2013-02-17 08:48:00,23.0,16.3,29.91,SSE,158,3.1,3.8,75,0.00,OVC,SCT,0.00,0.0,WeatherDisplay:10.37,2013-02-17 14:48:00,
2013-02-17 08:54:00,23.0,16.3,29.91,SSE,158,3.1,3.8,75,0.00,OVC,SCT,0.00,0.0,WeatherDisplay:10.37,2013-02-17 14:54:00,
2013-02-17 08:59:00,23.0,16.3,29.91,SSE,158,3.1,3.8,75,0.00,OVC,SCT,0.00,0.0,WeatherDisplay:10.37,2013-02-17 14:59:00,
2013-02-17 09:04:00,23.0,16.3,29.91,SSE,158,3.1,3.8,75,0.00,OVC,SCT,0.00,0.0,WeatherDisplay:10.37,2013-02-17 15:04:00,
2013-02-17 09:09:00,23.0,16.3,29.91,SSE,158,3.1,3.8,75,0.00,OVC,SCT,0.00,0.0,WeatherDisplay:10.37,2013-02-17 15:09:00,
2013-02-17 09:14:00,23.0,16.3,29.91,SSE,158,3.1,3.8,75,0.00,OVC,SCT,0.00,0.0,WeatherDisplay:10.37,2013-02-17 15:14:00,
2013-02-17 09:19:00,23.0,16.3,29.91,SSE,158,3.1,3.8,75,0.00,OVC,SCT,0.00,0.0,WeatherDisplay:10.37,2013-02-17 15:19:00,
2013-02-17 09:24:00,23.0,16.3,29.91,SSE,158,3.1,3.8,75,0.00,OVC,SCT,0.00,0.0,WeatherDisplay:10.37,2013-02-17 15:24:00,
2013-02-17 09:29:00,23.0,16.3,29.91,SSE,158,3.1,3.8,75,0.00,OVC,SCT,0.00,0.0,WeatherDisplay:10.37,2013-02-17 15:29:00,
2013-02-17 09:35:00,23.0,16.3,29.91,SSE,158,3.1,3.8,75,0.00,OVC,SCT,0.00,0.0,WeatherDisplay:10.37,2013-02-17 15:35:00,
2013-02-17 09:40:00,23.0,16.3,29.91,SSE,158,3.1,3.8,75,0.00,OVC,SCT,0.00,0.0,WeatherDisplay:10.37,2013-02-17 15:40:00,
2013-02-17 09:45:00,23.0,16.3,29.91,SSE,158,3.1,3.8,75,0.00,OVC,SCT,0.00,0.0,WeatherDisplay:10.37,2013-02-17 15:45:00,
2013-02-17 09:50:00,23.0,16.3,29.91,SSE,158,3.1,3.8,75,0.00,OVC,SCT,0.00,0.0,WeatherDisplay:10.37,2013-02-17 15:50:00,
2013-02-17 09:55:00,23.0,16.3,29.91,SSE,158,3.1,3.8,75,0.00,OVC,SCT,0.00,0.0,WeatherDisplay:10.37,2013-02-17 15:55:00,
2013-02-17 10:00:00,23.0,16.3,29.91,SSE,158,3.1,3.8,75,0.00,OVC,SCT,0.00,0.0,WeatherDisplay:10.37,2013-02-17 16:00:00,
2013-02-17 10:05:00,23.0,16.3,29.91,SSE,158,3.1,3.8,75,0.00,OVC,SCT,0.00,0.0,WeatherDisplay:10.37,2013-02-17 16:05:00,
2013-02-17 10:10:00,23.0,16.3,29.91,SSE,158,3.1,3.8,75,0.00,OVC,SCT,0.00,0.0,WeatherDisplay:10.37,2013-02-17 16:10:00,
2013-02-17 10:16:00,23.0,16.3,29.91,SSE,158,3.1,3.8,75,0.00,OVC,SCT,0.00,0.0,WeatherDisplay:10.37,2013-02-17 16:16:00,
2013-02-17 10:21:00,23.0,16.3,29.91,SSE,158,3.1,3.8,75,0.00,OVC,SCT,0.00,0.0,WeatherDisplay:10.37,2013-02-17 16:21:00,
2013-02-17 10:26:00,23.0,16.3,29.91,SSE,158,3.1,3.8,75,0.00,OVC,SCT,0.00,0.0,WeatherDisplay:10.37,2013-02-17 16:26:00,
2013-02-17 10:31:00,23.0,16.3,29.91,SSE,158,3.1,3.8,75,0.00,OVC,SCT,0.00,0.0,WeatherDisplay:10.37,2013-02-17 16:31:00,
2013-02-17 10:36:00,23.0,16.3,29.91,SSE,158,3.1,3.8,75,0.00,OVC,SCT,0.00,0.0,WeatherDisplay:10.37,2013-02-17 16:36:00,
2013-02-17 10:41:00,23.0,16.3,29.91,SSE,158,3.1,3.8,75,0.00,OVC,SCT,0.00,0.0,WeatherDisplay:10.37,2013-02-17 16:41:00,
2013-02-17 10:46:00,23.0,16.3,29.91,SSE,158,3.1,3.8,75,0.00,OVC,SCT,0.00,0.0,WeatherDisplay:10.37,2013-02-17 16:46:00,
2013-02-17 10:52:00,23.0,16.3,29.91,SSE,158,3.1,3.8,75,0.00,OVC,SCT,0.00,0.0,WeatherDisplay:10.37,2013-02-17 16:52:00,
2013-02-17 10:57:00,23.0,16.3,29.91,SSE,158,3.1,3.8,75,0.00,OVC,SCT,0.00,0.0,WeatherDisplay:10.37,2013-02-17 16:57:00,
2013-02-17 11:02:00,23.0,16.3,29.91,SSE,158,3.1,3.8,75,0.00,OVC,SCT,0.00,0.0,WeatherDisplay:10.37,2013-02-17 17:02:00,
2013-02-17 11:07:00,23.0,16.3,29.91,SSE,158,3.1,3.8,75,0.00,OVC,SCT,0.00,0.0,WeatherDisplay:10.37,2013-02-17 17:07:00,
2013-02-17 11:12:00,23.0,16.3,29.91,SSE,158,3.1,3.8,75,0.00,OVC,SCT,0.00,0.0,WeatherDisplay:10.37,2013-02-17 17:12:00,
2013-02-17 11:17:00,23.0,16.3,29.91,SSE,158,3.1,3.8,75,0.00,OVC,SCT,0.00,0.0,WeatherDisplay:10.37,2013-02-17 17:17:00,
2013-02-17 11:22:00,23.0,16.3,29.91,SSE,158,3.1,3.8,75,0.00,OVC,SCT,0.00,0.0,WeatherDisplay:10.37,2013-02-17 17:22:00,
2013-02-17 11:27:00,23.0,16.3,29.91,SSE,158,3.1,3.8,75,0.00,OVC,SCT,0.00,0.0,WeatherDisplay:10.37,2013-02-17 17:27:00,
2013-02-17 11:32:00,23.0,16.3,29.91,SSE,158,3.1,3.8,75,0.00,OVC,SCT,0.00,0.0,WeatherDisplay:10.37,2013-02-17 17:32:00,
2013-02-17 11:37:00,23.0,16.3,29.91,SSE,158,3.1,3.8,75,0.00,OVC,SCT,0.00,0.0,WeatherDisplay:10.37,2013-02-17 17:37:00,
2013-02-17 11:42:00,23.0,16.3,29.91,SSE,158,3.1,3.8,75,0.00,OVC,SCT,0.00,0.0,WeatherDisplay:10.37,2013-02-17 17:42:00,
2013-02-17 11:47:00,23.0,16.3,29.91,SSE,158,3.1,3.8,75,0.00,OVC,SCT,0.00,0.0,WeatherDisplay:10.37,2013-02-17 17:47:00,
2013-02-17 11:52:00,23.0,16.3,29.91,SSE,158,3.1,3.8,75,0.00,OVC,SCT,0.00,0.0,WeatherDisplay:10.37,2013-02-17 17:52:00,
2013-02-17 11:57:00,23.0,16.3,29.91,SSE,158,3.1,3.8,75,0.00,OVC,SCT,0.00,0.0,WeatherDisplay:10.37,2013-02-17 17:57:00,
2013-02-17 12:02:00,23.0,16.3,29.91,SSE,158,3.1,3.8,75,0.00,OVC,SCT,0.00,0.0,WeatherDisplay:10.37,2013-02-17 18:02:00,
2013-02-17 12:07:00,23.0,16.3,29.91,SSE,158,3.1,3.8,75,0.00,OVC,SCT,0.00,0.0,WeatherDisplay:10.37,2013-02-17 18:07:00,
2013-02-17 12:12:00,23.0,16.3,29.91,SSE,158,3.1,3.8,75,0.00,OVC,SCT,0.00,0.0,WeatherDisplay:10.37,2013-02-17 18:12:00,
2013-02-17 12:18:00,23.0,16.3,29.91,SSE,158,3.1,3.8,75,0.00,OVC,SCT,0.00,0.0,WeatherDisplay:10.37,2013-02-17 18:18:00,
2013-02-17 12:23:00,23.0,16.3,29.91,SSE,158,3.1,3.8,75,0.00,OVC,SCT,0.00,0.0,WeatherDisplay:10.37,2013-02-17 18:23:00,
2013-02-17 12:28:00,23.0,16.3,29.91,SSE,158,3.1,3.8,75,0.00,OVC,SCT,0.00,0.0,WeatherDisplay:10.37,2013-02-17 18:28:00,
2013-02-17 12:33:00,23.0,16.3,29.91,SSE,158,3.1,3.8,75,0.00,OVC,SCT,0.00,0.0,WeatherDisplay:10.37,2013-02-17 18:33:00,
2013-02-17 12:38:00,23.0,16.3,29.91,SSE,158,3.1,3.8,75,0.00,OVC,SCT,0.00,0.0,WeatherDisplay:10.37,2013-02-17 18:38:00,
2013-02-17 12:43:00,23.0,16.3,29.91,SSE,158,3.1,3.8,75,0.00,OVC,SCT,0.00,0.0,WeatherDisplay:10.37,2013-02-17 18:43:00,
2013-02-17 12:48:00,23.0,16.3,29.91,SSE,158,3.1,3.8,75,0.00,OVC,SCT,0.00,0.0,WeatherDisplay:10.37,2013-02-17 18:48:00,
2013-02-17 12:53:00,23.0,16.3,29.91,SSE,158,3.1,3.8,75,0.00,OVC,SCT,0.00,0.0,WeatherDisplay:10.37,2013-02-17 18:53:00,
2013-02-17 12:58:00,23.0,16.3,29.91,SSE,158,3.1,3.8,75,0.00,OVC,SCT,0.00,0.0,WeatherDisplay:10.37,2013-02-17 18:58:00,
2013-02-17 13:03:00,23.0,16.3,29.91,SSE,158,3.1,3.8,75,0.00,OVC,SCT,0.00,0.0,WeatherDisplay:10.37,2013-02-17 19:03:00,
2013-02-17 13:08:00,23.0,16.3,29.91,SSE,158,3.1,3.8,75,0.00,OVC,SCT,0.00,0.0,WeatherDisplay:10.37,2013-02-17 19:08:00,
2013-02-17 13:13:00,23.0,16.3,29.91,SSE,158,3.1,3.8,75,0.00,OVC,SCT,0.00,0.0,WeatherDisplay:10.37,2013-02-17 19:13:00,
2013-02-17 13:15:00,41.7,23.9,29.53,ESE,111,0.0,2.0,49,0.00,CLR,SCT,0.00,0.0,WeatherDisplay:10.37,2013-02-17 19:15:00,
2013-02-17 13:18:00,23.0,16.3,29.91,SSE,158,3.1,3.8,75,0.00,OVC,SCT,0.00,0.0,WeatherDisplay:10.37,2013-02-17 19:18:00,
2013-02-17 13:23:00,23.0,16.3,29.91,SSE,158,3.1,3.8,75,0.00,OVC,SCT,0.00,0.0,WeatherDisplay:10.37,2013-02-17 19:23:00,
2013-02-17 13:29:00,23.0,16.3,29.91,SSE,158,3.1,3.8,75,0.00,OVC,SCT,0.00,0.0,WeatherDisplay:10.37,2013-02-17 19:29:00,
2013-02-17 13:30:00,40.5,25.5,29.53,NNW,330,5.0,6.0,55,0.00,CLR,SCT,0.00,0.0,WeatherDisplay:10.37,2013-02-17 19:30:00,
2013-02-17 13:34:00,23.0,16.3,29.91,SSE,158,3.1,3.8,75,0.00,OVC,SCT,0.00,0.0,WeatherDisplay:10.37,2013-02-17 19:34:00,
2013-02-17 13:39:00,23.0,16.3,29.91,SSE,158,3.1,3.8,75,0.00,OVC,SCT,0.00,0.0,WeatherDisplay:10.37,2013-02-17 19:39:00,
2013-02-17 13:44:00,23.0,16.3,29.91,SSE,158,3.1,3.8,75,0.00,OVC,SCT,0.00,0.0,WeatherDisplay:10.37,2013-02-17 19:44:00,
2013-02-17 13:49:00,23.0,16.3,29.91,SSE,158,3.1,3.8,75,0.00,OVC,SCT,0.00,0.0,WeatherDisplay:10.37,2013-02-17 19:49:00,
2013-02-17 13:54:00,23.0,16.3,29.91,SSE,158,3.1,3.8,75,0.00,OVC,SCT,0.00,0.0,WeatherDisplay:10.37,2013-02-17 19:54:00,
2013-02-17 13:59:00,23.0,16.3,29.91,SSE,158,3.1,3.8,75,0.00,OVC,SCT,0.00,0.0,WeatherDisplay:10.37,2013-02-17 19:59:00,
2013-02-17 14:00:00,39.4,25.0,29.59,ENE,65,0.0,3.0,56,0.00,CLR,SCT,0.00,0.0,WeatherDisplay:10.37,2013-02-17 20:00:00,
2013-02-17 14:04:00,23.0,16.3,29.91,SSE,158,3.1,3.8,75,0.00,OVC,SCT,0.00,0.0,WeatherDisplay:10.37,2013-02-17 20:04:00,
2013-02-17 14:09:00,23.0,16.3,29.91,SSE,158,3.1,3.8,75,0.00,OVC,SCT,0.00,0.0,WeatherDisplay:10.37,2013-02-17 20:09:00,
2013-02-17 14:14:00,23.0,16.3,29.91,SSE,158,3.1,3.8,75,0.00,OVC,SCT,0.00,0.0,WeatherDisplay:10.37,2013-02-17 20:14:00,
2013-02-17 14:15:00,38.5,24.6,29.59,North,351,0.0,0.0,57,0.00,CLR,SCT,0.00,0.0,WeatherDisplay:10.37,2013-02-17 20:15:00,
2013-02-17 14:19:00,23.0,16.3,29.91,SSE,158,3.1,3.8,75,0.00,OVC,SCT,0.00,0.0,WeatherDisplay:10.37,2013-02-17 20:19:00,
2013-02-17 14:24:00,23.0,16.3,29.91,SSE,158,3.1,3.8,75,0.00,OVC,SCT,0.00,0.0,WeatherDisplay:10.37,2013-02-17 20:24:00,
2013-02-17 14:29:00,23.0,16.3,29.91,SSE,158,3.1,3.8,75,0.00,OVC,SCT,0.00,0.0,WeatherDisplay:10.37,2013-02-17 20:29:00,
2013-02-17 14:30:00,37.8,23.0,29.59,NNE,22,0.0,0.0,55,0.00,CLR,SCT,0.00,0.0,WeatherDisplay:10.37,2013-02-17 20:30:00,
2013-02-17 14:34:00,23.0,16.3,29.91,SSE,158,3.1,3.8,75,0.00,OVC,SCT,0.00,0.0,WeatherDisplay:10.37,2013-02-17 20:34:00,
2013-02-17 14:39:00,23.0,16.3,29.91,SSE,158,3.1,3.8,75,0.00,OVC,SCT,0.00,0.0,WeatherDisplay:10.37,2013-02-17 20:39:00,
2013-02-17 14:44:00,23.0,16.3,29.91,SSE,158,3.1,3.8,75,0.00,OVC,SCT,0.00,0.0,WeatherDisplay:10.37,2013-02-17 20:44:00,
2013-02-17 14:45:00,37.0,26.0,29.56,WNW,296,0.0,3.0,64,0.00,CLR,SCT,0.00,0.0,WeatherDisplay:10.37,2013-02-17 20:45:00,
2013-02-17 14:49:00,23.0,16.3,29.91,SSE,158,3.1,3.8,75,0.00,OVC,SCT,0.00,0.0,WeatherDisplay:10.37,2013-02-17 20:49:00,
2013-02-17 14:54:00,23.0,16.3,29.91,SSE,158,3.1,3.8,75,0.00,OVC,SCT,0.00,0.0,WeatherDisplay:10.37,2013-02-17 20:54:00,
2013-02-17 14:59:00,23.0,16.3,29.91,SSE,158,3.1,3.8,75,0.00,OVC,SCT,0.00,0.0,WeatherDisplay:10.37,2013-02-17 20:59:00,
2013-02-17 15:00:00,36.0,26.8,29.59,NW,316,2.0,3.0,69,0.00,CLR,SCT,0.00,0.0,WeatherDisplay:10.37,2013-02-17 21:00:00,
2013-02-17 15:04:00,23.0,16.3,29.91,SSE,158,3.1,3.8,75,0.00,OVC,SCT,0.00,0.0,WeatherDisplay:10.37,2013-02-17 21:04:00,
2013-02-17 15:09:00,23.0,16.3,29.91,SSE,158,3.1,3.8,75,0.00,OVC,SCT,0.00,0.0,WeatherDisplay:10.37,2013-02-17 21:09:00,
2013-02-17 15:14:00,23.0,16.3,29.91,SSE,158,3.1,3.8,75,0.00,OVC,SCT,0.00,0.0,WeatherDisplay:10.37,2013-02-17 21:14:00,
2013-02-17 15:15:00,37.0,29.5,29.56,NW,314,3.0,6.0,74,0.00,CLR,SCT,0.00,0.0,WeatherDisplay:10.37,2013-02-17 21:15:00,
2013-02-17 15:19:00,23.0,16.3,29.91,SSE,158,3.1,3.8,75,0.00,OVC,SCT,0.00,0.0,WeatherDisplay:10.37,2013-02-17 21:19:00,
2013-02-17 15:24:00,23.0,16.3,29.91,SSE,158,3.1,3.8,75,0.00,OVC,SCT,0.00,0.0,WeatherDisplay:10.37,2013-02-17 21:24:00,
2013-02-17 15:29:00,23.0,16.3,29.91,SSE,158,3.1,3.8,75,0.00,OVC,SCT,0.00,0.0,WeatherDisplay:10.37,2013-02-17 21:29:00,
2013-02-17 15:30:00,37.9,28.3,29.59,NNE,18,3.0,5.0,68,0.00,CLR,SCT,0.00,0.0,WeatherDisplay:10.37,2013-02-17 21:30:00,
2013-02-17 15:34:00,23.0,16.3,29.91,SSE,158,3.1,3.8,75,0.00,OVC,SCT,0.00,0.0,WeatherDisplay:10.37,2013-02-17 21:34:00,
2013-02-17 15:39:00,23.0,16.3,29.91,SSE,158,3.1,3.8,75,0.00,OVC,SCT,0.00,0.0,WeatherDisplay:10.37,2013-02-17 21:39:00,
2013-02-17 15:44:00,23.0,16.3,29.91,SSE,158,3.1,3.8,75,0.00,OVC,SCT,0.00,0.0,WeatherDisplay:10.37,2013-02-17 21:44:00,
2013-02-17 15:45:00,38.7,26.4,29.59,NNW,348,3.0,11.0,61,0.00,CLR,SCT,0.00,0.0,WeatherDisplay:10.37,2013-02-17 21:45:00,
2013-02-17 15:49:00,23.0,16.3,29.91,SSE,158,3.1,3.8,75,0.00,OVC,SCT,0.00,0.0,WeatherDisplay:10.37,2013-02-17 21:49:00,
2013-02-17 15:54:00,23.0,16.3,29.91,SSE,158,3.1,3.8,75,0.00,OVC,SCT,0.00,0.0,WeatherDisplay:10.37,2013-02-17 21:54:00,
2013-02-17 15:59:00,23.0,16.3,29.91,SSE,158,3.1,3.8,75,0.00,OVC,SCT,0.00,0.0,WeatherDisplay:10.37,2013-02-17 21:59:00,
2013-02-17 16:00:00,38.7,26.0,29.56,NNW,346,3.0,10.0,60,0.00,CLR,SCT,0.00,0.0,WeatherDisplay:10.37,2013-02-17 22:00:00,
2013-02-17 16:05:00,23.0,16.3,29.91,SSE,158,3.1,3.8,75,0.00,OVC,SCT,0.00,0.0,WeatherDisplay:10.37,2013-02-17 22:05:00,
2013-02-17 16:10:00,23.0,16.3,29.91,SSE,158,3.1,3.8,75,0.00,OVC,SCT,0.00,0.0,WeatherDisplay:10.37,2013-02-17 22:10:00,
2013-02-17 16:15:00,23.0,16.3,29.91,SSE,158,3.1,3.8,75,0.00,OVC,SCT,0.00,0.0,WeatherDisplay:10.37,2013-02-17 22:15:00,
2013-02-17 16:20:00,23.0,16.3,29.91,SSE,158,3.1,3.8,75,0.00,OVC,SCT,0.00,0.0,WeatherDisplay:10.37,2013-02-17 22:20:00,
2013-02-17 16:25:00,23.0,16.3,29.91,SSE,158,3.1,3.8,75,0.00,OVC,SCT,0.00,0.0,WeatherDisplay:10.37,2013-02-17 22:25:00,
2013-02-17 16:30:00,23.0,16.3,29.91,SSE,158,3.1,3.8,75,0.00,OVC,SCT,0.00,0.0,WeatherDisplay:10.37,2013-02-17 22:30:00,
2013-02-17 16:35:00,23.0,16.3,29.91,SSE,158,3.1,3.8,75,0.00,OVC,SCT,0.00,0.0,WeatherDisplay:10.37,2013-02-17 22:35:00,
2013-02-17 16:40:00,23.0,16.3,29.91,SSE,158,3.1,3.8,75,0.00,OVC,SCT,0.00,0.0,WeatherDisplay:10.37,2013-02-17 22:40:00,
2013-02-17 16:45:00,23.0,16.3,29.91,SSE,158,3.1,3.8,75,0.00,OVC,SCT,0.00,0.0,WeatherDisplay:10.37,2013-02-17 22:45:00,
2013-02-17 16:50:00,23.0,16.3,29.91,SSE,158,3.1,3.8,75,0.00,OVC,SCT,0.00,0.0,WeatherDisplay:10.37,2013-02-17 22:50:00,
2013-02-17 16:55:00,23.0,16.3,29.91,SSE,158,3.1,3.8,75,0.00,OVC,SCT,0.00,0.0,WeatherDisplay:10.37,2013-02-17 22:55:00,
2013-02-17 17:00:00,37.4,27.1,29.59,North,356,5.0,7.0,66,0.00,CLR,SCT,0.00,0.0,WeatherDisplay:10.37,2013-02-17 23:00:00,
2013-02-17 17:01:00,23.0,16.3,29.91,SSE,158,3.1,3.8,75,0.00,OVC,SCT,0.00,0.0,WeatherDisplay:10.37,2013-02-17 23:01:00,
2013-02-17 17:06:00,23.0,16.3,29.91,SSE,158,3.1,3.8,75,0.00,OVC,SCT,0.00,0.0,WeatherDisplay:10.37,2013-02-17 23:06:00,
2013-02-17 17:11:00,23.0,16.3,29.91,SSE,158,3.1,3.8,75,0.00,OVC,SCT,0.00,0.0,WeatherDisplay:10.37,2013-02-17 23:11:00,
2013-02-17 17:15:00,37.2,27.6,29.59,NNW,328,3.0,8.0,68,0.00,CLR,SCT,0.00,0.0,WeatherDisplay:10.37,2013-02-17 23:15:00,
2013-02-17 17:16:00,23.0,16.3,29.91,SSE,158,3.1,3.8,75,0.00,OVC,SCT,0.00,0.0,WeatherDisplay:10.37,2013-02-17 23:16:00,
2013-02-17 17:21:00,23.0,16.3,29.91,SSE,158,3.1,3.8,75,0.00,OVC,SCT,0.00,0.0,WeatherDisplay:10.37,2013-02-17 23:21:00,
2013-02-17 17:26:00,23.0,16.3,29.91,SSE,158,3.1,3.8,75,0.00,OVC,SCT,0.00,0.0,WeatherDisplay:10.37,2013-02-17 23:26:00,
2013-02-17 17:30:00,37.0,28.2,29.59,North,351,3.0,10.0,70,0.00,CLR,SCT,0.00,0.0,WeatherDisplay:10.37,2013-02-17 23:30:00,
2013-02-17 17:31:00,23.0,16.3,29.91,SSE,158,3.1,3.8,75,0.00,OVC,SCT,0.00,0.0,WeatherDisplay:10.37,2013-02-17 23:31:00,
2013-02-17 17:36:00,23.0,16.3,29.91,SSE,158,3.1,3.8,75,0.00,OVC,SCT,0.00,0.0,WeatherDisplay:10.37,2013-02-17 23:36:00,
2013-02-17 17:41:00,23.0,16.3,29.91,SSE,158,3.1,3.8,75,0.00,OVC,SCT,0.00,0.0,WeatherDisplay:10.37,2013-02-17 23:41:00,
2013-02-17 17:45:00,37.6,28.3,29.59,NNE,15,5.0,9.0,69,0.00,CLR,SCT,0.00,0.0,WeatherDisplay:10.37,2013-02-17 23:45:00,
2013-02-17 17:46:00,23.0,16.3,29.91,SSE,158,3.1,3.8,75,0.00,OVC,SCT,0.00,0.0,WeatherDisplay:10.37,2013-02-17 23:46:00,
2013-02-17 17:51:00,23.0,16.3,29.91,SSE,158,3.1,3.8,75,0.00,OVC,SCT,0.00,0.0,WeatherDisplay:10.37,2013-02-17 23:51:00,
2013-02-17 17:56:00,23.0,16.3,29.91,SSE,158,3.1,3.8,75,0.00,OVC,SCT,0.00,0.0,WeatherDisplay:10.37,2013-02-17 23:56:00,
2013-02-17 18:00:00,37.8,28.1,29.56,NNE,25,6.0,10.0,68,0.00,CLR,SCT,0.00,0.0,WeatherDisplay:10.37,2013-02-18 00:00:00,
2013-02-17 18:01:00,23.0,16.3,29.91,SSE,158,3.1,3.8,75,0.00,OVC,SCT,0.00,0.0,WeatherDisplay:10.37,2013-02-18 00:01:00,
2013-02-17 18:07:00,23.0,16.3,29.91,SSE,158,3.1,3.8,75,0.00,OVC,SCT,0.00,0.0,WeatherDisplay:10.37,2013-02-18 00:07:00,
2013-02-17 18:12:00,23.0,16.3,29.91,SSE,158,3.1,3.8,75,0.00,OVC,SCT,0.00,0.0,WeatherDisplay:10.37,2013-02-18 00:12:00,
2013-02-17 18:15:00,37.4,27.8,29.59,NNE,13,3.0,5.0,68,0.00,CLR,SCT,0.00,0.0,WeatherDisplay:10.37,2013-02-18 00:15:00,
2013-02-17 18:17:00,23.0,16.3,29.91,SSE,158,3.1,3.8,75,0.00,OVC,SCT,0.00,0.0,WeatherDisplay:10.37,2013-02-18 00:17:00,
2013-02-17 18:22:00,23.0,16.3,29.91,SSE,158,3.1,3.8,75,0.00,OVC,SCT,0.00,0.0,WeatherDisplay:10.37,2013-02-18 00:22:00,
2013-02-17 18:27:00,23.0,16.3,29.91,SSE,158,3.1,3.8,75,0.00,OVC,SCT,0.00,0.0,WeatherDisplay:10.37,2013-02-18 00:27:00,
2013-02-17 18:30:00,36.9,27.6,29.59,North,5,3.0,6.0,69,0.00,CLR,SCT,0.00,0.0,WeatherDisplay:10.37,2013-02-18 00:30:00,
2013-02-17 18:32:00,23.0,16.3,29.91,SSE,158,3.1,3.8,75,0.00,OVC,SCT,0.00,0.0,WeatherDisplay:10.37,2013-02-18 00:32:00,
2013-02-17 18:37:00,23.0,16.3,29.91,SSE,158,3.1,3.8,75,0.00,CLR,SCT,0.00,0.0,WeatherDisplay:10.37,2013-02-18 00:37:00,
2013-02-17 18:42:00,23.0,16.3,29.91,SSE,158,3.1,3.8,75,0.00,CLR,SCT,0.00,0.0,WeatherDisplay:10.37,2013-02-18 00:42:00,
2013-02-17 18:45:00,36.7,27.5,29.62,NNE,13,5.0,10.0,69,0.00,CLR,SCT,0.00,0.0,WeatherDisplay:10.37,2013-02-18 00:45:00,
2013-02-17 18:47:00,23.0,16.3,29.91,SSE,158,3.1,3.8,75,0.00,CLR,SCT,0.00,0.0,WeatherDisplay:10.37,2013-02-18 00:47:00,
2013-02-17 18:53:00,23.0,16.3,29.91,SSE,158,3.1,3.8,75,0.00,CLR,SCT,0.00,0.0,WeatherDisplay:10.37,2013-02-18 00:53:00,
2013-02-17 18:58:00,23.0,16.3,29.91,SSE,158,3.1,3.8,75,0.00,CLR,SCT,0.00,0.0,WeatherDisplay:10.37,2013-02-18 00:58:00,
2013-02-17 19:03:00,23.0,16.3,29.91,SSE,158,3.1,3.8,75,0.00,CLR,SCT,0.00,0.0,WeatherDisplay:10.37,2013-02-18 01:03:00,
2013-02-17 19:08:00,23.0,16.3,29.91,SSE,158,3.1,3.8,75,0.00,CLR,SCT,0.00,0.0,WeatherDisplay:10.37,2013-02-18 01:08:00,
2013-02-17 19:13:00,23.0,16.3,29.91,SSE,158,3.1,3.8,75,0.00,CLR,SCT,0.00,0.0,WeatherDisplay:10.37,2013-02-18 01:13:00,
2013-02-17 19:18:00,23.0,16.3,29.91,SSE,158,3.1,3.8,75,0.00,CLR,SCT,0.00,0.0,WeatherDisplay:10.37,2013-02-18 01:18:00,
2013-02-17 19:23:00,23.0,16.3,29.91,SSE,158,3.1,3.8,75,0.00,CLR,SCT,0.00,0.0,WeatherDisplay:10.37,2013-02-18 01:23:00,
2013-02-17 19:28:00,23.0,16.3,29.91,SSE,158,3.1,3.8,75,0.00,CLR,SCT,0.00,0.0,WeatherDisplay:10.37,2013-02-18 01:28:00,
2013-02-17 19:33:00,23.0,16.3,29.91,SSE,158,3.1,3.8,75,0.00,CLR,SCT,0.00,0.0,WeatherDisplay:10.37,2013-02-18 01:33:00,
2013-02-17 19:38:00,23.0,16.3,29.91,SSE,158,3.1,3.8,75,0.00,CLR,SCT,0.00,0.0,WeatherDisplay:10.37,2013-02-18 01:38:00,
2013-02-17 19:43:00,23.0,16.3,29.91,SSE,158,3.1,3.8,75,0.00,CLR,SCT,0.00,0.0,WeatherDisplay:10.37,2013-02-18 01:43:00,
2013-02-17 19:48:00,23.0,16.3,29.91,SSE,158,3.1,3.8,75,0.00,CLR,SCT,0.00,0.0,WeatherDisplay:10.37,2013-02-18 01:48:00,
2013-02-17 19:53:00,23.0,16.3,29.91,SSE,158,3.1,3.8,75,0.00,CLR,SCT,0.00,0.0,WeatherDisplay:10.37,2013-02-18 01:53:00,
2013-02-17 19:58:00,23.0,16.3,29.91,SSE,158,3.1,3.8,75,0.00,CLR,SCT,0.00,0.0,WeatherDisplay:10.37,2013-02-18 01:58:00,
2013-02-17 20:03:00,23.0,16.3,29.91,SSE,158,3.1,3.8,75,0.00,CLR,SCT,0.00,0.0,WeatherDisplay:10.37,2013-02-18 02:03:00,
2013-02-17 20:08:00,23.0,16.3,29.91,SSE,158,3.1,3.8,75,0.00,CLR,SCT,0.00,0.0,WeatherDisplay:10.37,2013-02-18 02:08:00,
2013-02-17 20:13:00,23.0,16.3,29.91,SSE,158,3.1,3.8,75,0.00,CLR,SCT,0.00,0.0,WeatherDisplay:10.37,2013-02-18 02:13:00,
2013-02-17 20:18:00,23.0,16.3,29.91,SSE,158,3.1,3.8,75,0.00,CLR,SCT,0.00,0.0,WeatherDisplay:10.37,2013-02-18 02:18:00,
2013-02-17 20:24:00,23.0,16.3,29.91,SSE,158,3.1,3.8,75,0.00,CLR,SCT,0.00,0.0,WeatherDisplay:10.37,2013-02-18 02:24:00,
2013-02-17 20:29:00,23.0,16.3,29.91,SSE,158,3.1,3.8,75,0.00,CLR,SCT,0.00,0.0,WeatherDisplay:10.37,2013-02-18 02:29:00,
2013-02-17 20:34:00,23.0,16.3,29.91,SSE,158,3.1,3.8,75,0.00,CLR,SCT,0.00,0.0,WeatherDisplay:10.37,2013-02-18 02:34:00,
2013-02-17 20:39:00,23.0,16.3,29.91,SSE,158,3.1,3.8,75,0.00,CLR,SCT,0.00,0.0,WeatherDisplay:10.37,2013-02-18 02:39:00,
2013-02-17 20:44:00,23.0,16.3,29.91,SSE,158,3.1,3.8,75,0.00,CLR,SCT,0.00,0.0,WeatherDisplay:10.37,2013-02-18 02:44:00,
2013-02-17 20:49:00,23.0,16.3,29.91,SSE,158,3.1,3.8,75,0.00,CLR,SCT,0.00,0.0,WeatherDisplay:10.37,2013-02-18 02:49:00,
2013-02-17 20:54:00,23.0,16.3,29.91,SSE,158,3.1,3.8,75,0.00,CLR,SCT,0.00,0.0,WeatherDisplay:10.37,2013-02-18 02:54:00,
2013-02-17 20:59:00,23.0,16.3,29.91,SSE,158,3.1,3.8,75,0.00,CLR,SCT,0.00,0.0,WeatherDisplay:10.37,2013-02-18 02:59:00,
2013-02-17 21:04:00,23.0,16.3,29.91,SSE,158,3.1,3.8,75,0.00,CLR,SCT,0.00,0.0,WeatherDisplay:10.37,2013-02-18 03:04:00,
2013-02-17 21:09:00,23.0,16.3,29.91,SSE,158,3.1,3.8,75,0.00,CLR,SCT,0.00,0.0,WeatherDisplay:10.37,2013-02-18 03:09:00,
2013-02-17 21:14:00,23.0,16.3,29.91,SSE,158,3.1,3.8,75,0.00,CLR,SCT,0.00,0.0,WeatherDisplay:10.37,2013-02-18 03:14:00,
2013-02-17 21:19:00,23.0,16.3,29.91,SSE,158,3.1,3.8,75,0.00,CLR,SCT,0.00,0.0,WeatherDisplay:10.37,2013-02-18 03:19:00,
2013-02-17 21:24:00,23.0,16.3,29.91,SSE,158,3.1,3.8,75,0.00,CLR,SCT,0.00,0.0,WeatherDisplay:10.37,2013-02-18 03:24:00,
2013-02-17 21:29:00,23.0,16.3,29.91,SSE,158,3.1,3.8,75,0.00,CLR,SCT,0.00,0.0,WeatherDisplay:10.37,2013-02-18 03:29:00,
2013-02-17 21:34:00,23.0,16.3,29.91,SSE,158,3.1,3.8,75,0.00,CLR,SCT,0.00,0.0,WeatherDisplay:10.37,2013-02-18 03:34:00,
2013-02-17 21:40:00,23.0,16.3,29.91,SSE,158,3.1,3.8,75,0.00,CLR,SCT,0.00,0.0,WeatherDisplay:10.37,2013-02-18 03:40:00,
2013-02-17 21:45:00,23.0,16.3,29.91,SSE,158,3.1,3.8,75,0.00,CLR,SCT,0.00,0.0,WeatherDisplay:10.37,2013-02-18 03:45:00,
2013-02-17 21:50:00,23.0,16.3,29.91,SSE,158,3.1,3.8,75,0.00,CLR,SCT,0.00,0.0,WeatherDisplay:10.37,2013-02-18 03:50:00,
2013-02-17 21:55:00,23.0,16.3,29.91,SSE,158,3.1,3.8,75,0.00,CLR,SCT,0.00,0.0,WeatherDisplay:10.37,2013-02-18 03:55:00,
2013-02-17 22:00:00,23.0,16.3,29.91,SSE,158,3.1,3.8,75,0.00,CLR,SCT,0.00,0.0,WeatherDisplay:10.37,2013-02-18 04:00:00,
2013-02-17 22:05:00,23.0,16.3,29.91,SSE,158,3.1,3.8,75,0.00,CLR,SCT,0.00,0.0,WeatherDisplay:10.37,2013-02-18 04:05:00,
2013-02-17 22:10:00,23.0,16.3,29.91,SSE,158,3.1,3.8,75,0.00,CLR,SCT,0.00,0.0,WeatherDisplay:10.37,2013-02-18 04:10:00,
2013-02-17 22:15:00,23.0,16.3,29.91,SSE,158,3.1,3.8,75,0.00,CLR,SCT,0.00,0.0,WeatherDisplay:10.37,2013-02-18 04:15:00,
2013-02-17 22:20:00,23.0,16.3,29.91,SSE,158,3.1,3.8,75,0.00,CLR,SCT,0.00,0.0,WeatherDisplay:10.37,2013-02-18 04:20:00,
2013-02-17 22:25:00,23.0,16.3,29.91,SSE,158,3.1,3.8,75,0.00,CLR,SCT,0.00,0.0,WeatherDisplay:10.37,2013-02-18 04:25:00,
2013-02-17 22:30:00,23.0,16.3,29.91,SSE,158,3.1,3.8,75,0.00,CLR,SCT,0.00,0.0,WeatherDisplay:10.37,2013-02-18 04:30:00,
2013-02-17 22:35:00,23.0,16.3,29.91,SSE,158,3.1,3.8,75,0.00,CLR,SCT,0.00,0.0,WeatherDisplay:10.37,2013-02-18 04:35:00,
2013-02-17 22:41:00,23.0,16.3,29.91,SSE,158,3.1,3.8,75,0.00,CLR,SCT,0.00,0.0,WeatherDisplay:10.37,2013-02-18 04:41:00,
2013-02-17 22:46:00,23.0,16.3,29.91,SSE,158,3.1,3.8,75,0.00,CLR,SCT,0.00,0.0,WeatherDisplay:10.37,2013-02-18 04:46:00,
2013-02-17 22:51:00,23.0,16.3,29.91,SSE,158,3.1,3.8,75,0.00,CLR,SCT,0.00,0.0,WeatherDisplay:10.37,2013-02-18 04:51:00,
2013-02-17 22:56:00,23.0,16.3,29.91,SSE,158,3.1,3.8,75,0.00,CLR,SCT,0.00,0.0,WeatherDisplay:10.37,2013-02-18 04:56:00,
2013-02-17 23:00:00,23.0,16.3,29.91,SSE,158,3.1,3.8,75,0.00,CLR,SCT,0.00,0.0,WeatherDisplay:10.37,2013-02-18 05:00:00,
2013-02-17 23:05:00,23.0,16.3,29.91,SSE,158,3.1,3.8,75,0.00,CLR,SCT,0.00,0.0,WeatherDisplay:10.37,2013-02-18 05:05:00,
2013-02-17 23:11:00,23.0,16.3,29.91,SSE,158,3.1,3.8,75,0.00,CLR,SCT,0.00,0.0,WeatherDisplay:10.37,2013-02-18 05:11:00,
2013-02-17 23:16:00,23.0,16.3,29.91,SSE,158,3.1,3.8,75,0.00,CLR,SCT,0.00,0.0,WeatherDisplay:10.37,2013-02-18 05:16:00,
2013-02-17 23:21:00,23.0,16.3,29.91,SSE,158,3.1,3.8,75,0.00,CLR,SCT,0.00,0.0,WeatherDisplay:10.37,2013-02-18 05:21:00,
2013-02-17 23:26:00,23.0,16.3,29.91,SSE,158,3.1,3.8,75,0.00,CLR,SCT,0.00,0.0,WeatherDisplay:10.37,2013-02-18 05:26:00,
2013-02-17 23:31:00,23.0,16.3,29.91,SSE,158,3.1,3.8,75,0.00,CLR,SCT,0.00,0.0,WeatherDisplay:10.37,2013-02-18 05:31:00,
2013-02-17 23:36:00,23.0,16.3,29.91,SSE,158,3.1,3.8,75,0.00,CLR,SCT,0.00,0.0,WeatherDisplay:10.37,2013-02-18 05:36:00,
2013-02-17 23:41:00,23.0,16.3,29.91,SSE,158,3.1,3.8,75,0.00,CLR,SCT,0.00,0.0,WeatherDisplay:10.37,2013-02-18 05:41:00,
2013-02-17 23:46:00,23.0,16.3,29.91,SSE,158,3.1,3.8,75,0.00,CLR,SCT,0.00,0.0,WeatherDisplay:10.37,2013-02-18 05:46:00,
2013-02-17 23:51:00,23.0,16.3,29.91,SSE,158,3.1,3.8,75,0.00,CLR,SCT,0.00,0.0,WeatherDisplay:10.37,2013-02-18 05:51:00,
2013-02-17 23:56:00,23.0,16.3,29.91,SSE,158,3.1,3.8,75,0.00,CLR,SCT,0.00,0.0,WeatherDisplay:10.37,2013-02-18 05:56:00,